Time;durP1;ratioP1;P1;durP2;ratioP2;P2;SDS_P1;SDS_P2;PMS_P1;PMS_P2;Temp;Humidity;BMP_temperature;BMP_pressure;BME280_temperature;BME280_humidity;BME280_pressure;Samples;Min_cycle;Max_cycle;Signal;HPM_P1;HPM_P2
2023/01/25 00:01:32;;;;;;;43.22;38.45;;;1.00;99.90;;;;;;6151262;23;20017;-79
2023/01/25 00:03:57;;;;;;;48.38;39.90;;;0.90;99.90;;;;;;6150761;23;20080;-78
2023/01/25 00:06:23;;;;;;;47.38;40.55;;;1.00;99.90;;;;;;6151066;23;20480;-79
2023/01/25 00:08:50;;;;;;;46.75;39.22;;;0.90;99.90;;;;;;6151108;23;20020;-83
2023/01/25 00:11:16;;;;;;;44.13;39.28;;;0.90;99.90;;;;;;6151026;23;20010;-82
2023/01/25 00:13:42;;;;;;;45.10;38.65;;;0.90;99.90;;;;;;6151506;23;20012;-79
2023/01/25 00:16:08;;;;;;;44.78;39.35;;;0.80;99.90;;;;;;6151300;23;20009;-79
2023/01/25 00:18:34;;;;;;;46.67;39.72;;;0.80;99.90;;;;;;6151388;23;20009;-79
2023/01/25 00:21:10;;;;;;;45.17;40.13;;;0.80;99.90;;;;;;6151635;23;20018;-79
2023/01/25 00:23:35;;;;;;;46.13;41.15;;;0.80;99.90;;;;;;6150992;23;20020;-79
2023/01/25 00:26:01;;;;;;;46.50;39.83;;;0.80;99.90;;;;;;6150376;23;20018;-79
2023/01/25 00:28:26;;;;;;;43.63;38.85;;;0.70;99.90;;;;;;6151379;23;20017;-79
2023/01/25 00:30:52;;;;;;;45.67;40.20;;;0.70;99.90;;;;;;6151284;23;20014;-79
2023/01/25 00:33:17;;;;;;;44.92;39.95;;;0.70;99.90;;;;;;6127507;23;20012;-81
2023/01/25 00:35:44;;;;;;;45.17;40.00;;;0.70;99.90;;;;;;6126029;23;20089;-79
2023/01/25 00:38:32;;;;;;;44.38;38.67;;;0.80;99.90;;;;;;6151851;23;20167;-79
2023/01/25 00:40:58;;;;;;;43.92;39.00;;;0.80;99.90;;;;;;6152239;23;20019;-83
2023/01/25 00:43:24;;;;;;;45.10;40.03;;;0.90;99.90;;;;;;6152061;23;20064;-82
2023/01/25 00:45:49;;;;;;;43.65;38.72;;;1.00;99.90;;;;;;6126459;23;20032;-79
2023/01/25 00:48:15;;;;;;;45.70;40.28;;;0.90;99.90;;;;;;6151489;23;20013;-79
2023/01/25 00:50:40;;;;;;;46.75;40.63;;;0.90;99.90;;;;;;6151263;23;20096;-79
2023/01/25 00:53:06;;;;;;;44.65;39.58;;;0.90;99.90;;;;;;6151083;23;20017;-79
2023/01/25 00:55:32;;;;;;;46.22;41.10;;;0.90;99.90;;;;;;6150438;23;20014;-82
2023/01/25 00:57:57;;;;;;;45.53;40.35;;;0.90;99.90;;;;;;6150909;23;20085;-79
2023/01/25 01:00:23;;;;;;;45.55;40.53;;;0.90;99.90;;;;;;6125978;23;20013;-79
2023/01/25 01:02:48;;;;;;;43.05;38.20;;;0.90;99.90;;;;;;6151164;23;20346;-82
2023/01/25 01:05:14;;;;;;;44.83;40.00;;;0.90;99.90;;;;;;6150073;23;20056;-79
2023/01/25 01:07:40;;;;;;;46.25;39.13;;;0.90;99.90;;;;;;6150522;23;20021;-79
2023/01/25 01:10:06;;;;;;;41.17;36.75;;;0.80;99.90;;;;;;6150748;23;20565;-81
2023/01/25 01:12:31;;;;;;;42.97;37.72;;;0.70;99.90;;;;;;6149052;23;20092;-79
2023/01/25 01:14:57;;;;;;;46.17;39.50;;;0.60;99.90;;;;;;6150536;23;20123;-82
2023/01/25 01:17:23;;;;;;;46.25;39.67;;;0.60;99.90;;;;;;6128580;23;20010;-86
2023/01/25 01:19:49;;;;;;;47.45;39.47;;;0.60;99.90;;;;;;6152309;23;20017;-79
2023/01/25 01:22:14;;;;;;;46.17;39.60;;;0.60;99.90;;;;;;6152497;23;20014;-79
2023/01/25 01:24:41;;;;;;;45.70;40.60;;;0.60;99.90;;;;;;6152293;23;20022;-79
2023/01/25 01:27:06;;;;;;;44.92;39.40;;;0.70;99.90;;;;;;6152878;23;20478;-79
2023/01/25 01:29:32;;;;;;;45.08;39.80;;;0.80;99.90;;;;;;6128699;23;20024;-79
2023/01/25 01:31:57;;;;;;;48.35;41.10;;;0.70;99.90;;;;;;6153525;23;20665;-82
2023/01/25 01:34:23;;;;;;;48.17;41.17;;;0.70;99.90;;;;;;6152030;23;20013;-81
2023/01/25 01:36:49;;;;;;;46.90;40.17;;;0.70;99.90;;;;;;6127785;23;20013;-79
2023/01/25 01:39:14;;;;;;;44.53;39.45;;;0.70;99.90;;;;;;6152174;23;20017;-79
2023/01/25 01:41:40;;;;;;;45.97;39.95;;;0.80;99.90;;;;;;6152426;23;20017;-80
2023/01/25 01:44:16;;;;;;;46.88;39.60;;;0.70;99.90;;;;;;6152420;23;20350;-82
2023/01/25 01:46:47;;;;;;;46.95;39.55;;;0.70;99.90;;;;;;6152404;23;20013;-83
2023/01/25 01:49:22;;;;;;;45.45;39.20;;;0.60;99.90;;;;;;6152639;23;20013;-79
2023/01/25 01:51:53;;;;;;;47.63;40.80;;;0.70;99.90;;;;;;6153043;23;20017;-82
2023/01/25 01:54:37;;;;;;;45.08;40.08;;;0.70;99.90;;;;;;6153211;23;20016;-81
2023/01/25 01:57:07;;;;;;;47.03;40.55;;;0.70;99.90;;;;;;6152398;23;20018;-82
2023/01/25 01:59:40;;;;;;;46.63;39.70;;;0.70;99.90;;;;;;6151518;23;20018;-80
2023/01/25 02:02:06;;;;;;;45.40;39.72;;;0.70;99.90;;;;;;6153079;23;20019;-79
2023/01/25 02:04:32;;;;;;;44.80;39.92;;;0.70;99.90;;;;;;6128035;23;20085;-80
2023/01/25 02:07:26;;;;;;;46.92;40.53;;;0.70;99.90;;;;;;6151113;23;20014;-79
2023/01/25 02:09:52;;;;;;;46.55;40.42;;;0.70;99.90;;;;;;6152147;23;20037;-79
2023/01/25 02:12:20;;;;;;;44.85;39.78;;;0.70;99.90;;;;;;6151970;23;20010;-79
2023/01/25 02:14:50;;;;;;;44.25;39.42;;;0.80;99.90;;;;;;6150022;23;20045;-79
2023/01/25 02:17:29;;;;;;;49.38;43.17;;;0.80;99.90;;;;;;6127407;23;20347;-79
2023/01/25 02:20:07;;;;;;;46.63;39.63;;;0.80;99.90;;;;;;6152071;23;20014;-81
2023/01/25 02:22:38;;;;;;;46.60;40.55;;;0.80;99.90;;;;;;6151215;23;20021;-79
2023/01/25 02:25:07;;;;;;;47.15;40.50;;;0.80;99.90;;;;;;6150999;23;20805;-83
2023/01/25 02:27:37;;;;;;;46.28;40.78;;;0.80;99.90;;;;;;6151369;23;20078;-79
2023/01/25 02:30:04;;;;;;;47.17;41.20;;;0.80;99.90;;;;;;6151625;23;20020;-79
2023/01/25 02:32:31;;;;;;;49.42;41.95;;;0.80;99.90;;;;;;6151680;23;20013;-79
2023/01/25 02:34:56;;;;;;;48.05;41.25;;;0.80;99.90;;;;;;6151374;23;20009;-79
2023/01/25 02:37:22;;;;;;;49.10;43.83;;;0.80;99.90;;;;;;6127919;23;20406;-82
2023/01/25 02:39:47;;;;;;;46.38;41.33;;;0.80;99.90;;;;;;6152912;23;20103;-79
2023/01/25 02:42:13;;;;;;;46.53;41.05;;;0.80;99.90;;;;;;6152991;23;20099;-78
2023/01/25 02:44:39;;;;;;;44.35;39.42;;;0.80;99.90;;;;;;6152144;23;20096;-82
2023/01/25 02:47:05;;;;;;;45.70;40.78;;;0.80;99.90;;;;;;6152264;23;20022;-81
2023/01/25 02:49:36;;;;;;;47.45;41.83;;;0.80;99.90;;;;;;6152303;23;20048;-82
2023/01/25 02:52:03;;;;;;;46.25;41.30;;;0.80;99.90;;;;;;6152591;23;20485;-79
2023/01/25 02:54:29;;;;;;;46.65;41.65;;;0.80;99.90;;;;;;6152653;23;20439;-79
2023/01/25 02:56:55;;;;;;;46.75;41.08;;;0.80;99.90;;;;;;6151699;23;20013;-82
2023/01/25 02:59:21;;;;;;;47.22;42.08;;;0.80;99.90;;;;;;6152039;23;20100;-82
2023/01/25 03:01:47;;;;;;;45.15;40.25;;;0.80;99.90;;;;;;6151513;23;20048;-83
2023/01/25 03:04:12;;;;;;;48.03;41.35;;;0.80;99.90;;;;;;6152152;23;20023;-79
2023/01/25 03:06:39;;;;;;;48.45;43.00;;;0.90;99.90;;;;;;6151066;23;20009;-79
2023/01/25 03:09:08;;;;;;;46.60;41.50;;;0.80;99.90;;;;;;6153291;23;20089;-80
2023/01/25 03:11:34;;;;;;;46.05;40.65;;;0.80;99.90;;;;;;6151949;23;20018;-79
2023/01/25 03:14:00;;;;;;;47.05;41.15;;;0.80;99.90;;;;;;6151443;23;20469;-80
2023/01/25 03:16:25;;;;;;;46.20;41.17;;;0.80;99.90;;;;;;6150928;23;20013;-80
2023/01/25 03:18:54;;;;;;;49.80;42.45;;;0.80;99.90;;;;;;6151467;23;20380;-79
2023/01/25 03:21:21;;;;;;;47.97;42.10;;;0.90;99.90;;;;;;6151696;23;20104;-79
2023/01/25 03:23:52;;;;;;;45.55;39.83;;;0.80;99.90;;;;;;6151388;23;20351;-79
2023/01/25 03:26:21;;;;;;;45.92;40.78;;;0.70;99.90;;;;;;6151086;23;20080;-79
2023/01/25 03:28:46;;;;;;;49.10;41.25;;;0.70;99.90;;;;;;6151498;23;20459;-79
2023/01/25 03:31:14;;;;;;;46.08;40.75;;;0.70;99.90;;;;;;6151195;23;20063;-82
2023/01/25 03:33:40;;;;;;;46.78;40.45;;;0.70;99.90;;;;;;6151090;23;20041;-80
2023/01/25 03:36:06;;;;;;;44.42;39.53;;;0.70;99.90;;;;;;6150739;23;20060;-79
2023/01/25 03:38:33;;;;;;;46.80;40.83;;;0.60;99.90;;;;;;6151235;23;20017;-82
2023/01/25 03:40:59;;;;;;;44.67;39.80;;;0.60;99.90;;;;;;6152782;23;20021;-79
2023/01/25 03:43:24;;;;;;;44.95;39.67;;;0.50;99.90;;;;;;6151765;23;20021;-83
2023/01/25 03:46:00;;;;;;;45.58;39.08;;;0.50;99.90;;;;;;6151359;23;20104;-79
2023/01/25 03:48:26;;;;;;;;;;;0.50;99.90;;;;;;6152097;23;20021;-79
2023/01/25 03:50:53;;;;;;;;;;;0.40;99.90;;;;;;6151435;23;19919;-79
2023/01/25 03:53:27;;;;;;;43.75;37.83;;;0.50;99.90;;;;;;6151331;23;19939;-83
2023/01/25 03:56:00;;;;;;;42.17;37.60;;;0.50;99.90;;;;;;6150868;23;20351;-79
2023/01/25 03:58:27;;;;;;;44.83;37.47;;;0.50;99.90;;;;;;6152138;23;20027;-79
2023/01/25 04:00:57;;;;;;;42.97;37.30;;;0.50;99.90;;;;;;6150631;23;20014;-79
2023/01/25 04:03:24;;;;;;;41.05;36.55;;;0.50;99.90;;;;;;6151481;23;20328;-81
2023/01/25 04:05:50;;;;;;;43.50;37.10;;;0.40;99.90;;;;;;6150249;23;20076;-79
2023/01/25 04:08:16;;;;;;;39.60;35.30;;;0.40;99.90;;;;;;6151753;23;20017;-81
2023/01/25 04:10:41;;;;;;;42.95;37.13;;;0.40;99.90;;;;;;6151133;23;20052;-79
2023/01/25 04:13:07;;;;;;;39.40;34.22;;;0.40;99.90;;;;;;6151818;23;20017;-79
2023/01/25 04:15:32;;;;;;;38.05;33.95;;;0.40;99.90;;;;;;6150736;23;20608;-79
2023/01/25 04:17:58;;;;;;;39.60;33.65;;;0.40;99.90;;;;;;6150895;23;20375;-79
2023/01/25 04:20:24;;;;;;;37.05;33.00;;;0.40;99.90;;;;;;6151073;23;20092;-80
2023/01/25 04:22:49;;;;;;;37.53;33.63;;;0.30;99.90;;;;;;6150297;23;20096;-79
2023/01/25 04:25:15;;;;;;;38.17;34.08;;;0.40;99.90;;;;;;6150179;23;20067;-80
2023/01/25 04:27:40;;;;;;;37.17;33.22;;;0.30;99.90;;;;;;6151853;23;20025;-80
2023/01/25 04:30:07;;;;;;;40.33;34.63;;;0.40;99.90;;;;;;6151830;23;20021;-79
2023/01/25 04:32:34;;;;;;;38.53;34.38;;;0.30;99.90;;;;;;6151251;23;20018;-80
2023/01/25 04:35:00;;;;;;;38.17;34.05;;;0.40;99.90;;;;;;6150666;23;20013;-84
2023/01/25 04:37:25;;;;;;;36.80;32.80;;;0.30;99.90;;;;;;6151308;23;20014;-80
2023/01/25 04:39:51;;;;;;;38.17;33.75;;;0.40;99.90;;;;;;6150450;23;20088;-79
2023/01/25 04:42:16;;;;;;;40.13;33.90;;;0.40;99.90;;;;;;6126604;23;20021;-79
2023/01/25 04:44:42;;;;;;;36.28;30.67;;;0.40;99.90;;;;;;6151405;23;20064;-82
2023/01/25 04:47:07;;;;;;;36.28;32.42;;;0.40;99.90;;;;;;6150503;23;20060;-79
2023/01/25 04:49:33;;;;;;;34.22;30.50;;;0.40;99.90;;;;;;6150171;23;20018;-80
2023/01/25 04:51:58;;;;;;;35.67;31.88;;;0.30;99.90;;;;;;6151246;23;20013;-81
2023/01/25 04:54:24;;;;;;;36.22;32.13;;;0.40;99.90;;;;;;6151327;23;20020;-79
2023/01/25 04:56:49;;;;;;;34.33;30.73;;;0.30;99.90;;;;;;6126862;23;20096;-79
2023/01/25 04:59:15;;;;;;;33.20;29.67;;;0.40;99.90;;;;;;6151458;23;20013;-81
2023/01/25 05:01:41;;;;;;;34.58;30.88;;;0.30;99.90;;;;;;6151297;23;20013;-83
2023/01/25 05:04:06;;;;;;;35.88;31.75;;;0.30;99.90;;;;;;6151610;23;20010;-78
2023/01/25 05:06:32;;;;;;;38.58;31.67;;;0.30;99.90;;;;;;6152046;23;20097;-81
2023/01/25 05:08:58;;;;;;;36.92;32.83;;;0.30;99.90;;;;;;6151772;23;20017;-79
2023/01/25 05:11:23;;;;;;;39.42;31.20;;;0.30;99.90;;;;;;6151462;23;20018;-80
2023/01/25 05:13:50;;;;;;;35.20;31.13;;;0.20;99.90;;;;;;6151391;23;20016;-80
2023/01/25 05:16:16;;;;;;;36.75;31.60;;;0.20;99.90;;;;;;6151664;23;20013;-79
2023/01/25 05:18:42;;;;;;;39.58;33.35;;;0.20;99.90;;;;;;6151012;23;20064;-80
2023/01/25 05:21:56;;;;;;;38.20;32.25;;;0.30;99.90;;;;;;6125697;23;20017;-81
2023/01/25 05:23:53;;;;;;;36.75;31.77;;;0.30;99.90;;;;;;6150653;23;20458;-79
2023/01/25 05:29:03;;;;;;;37.55;33.08;;;0.30;99.90;;;;;;6151373;23;20028;-81
2023/01/25 05:31:28;;;;;;;37.67;33.58;;;0.30;99.90;;;;;;6151552;23;20010;-80
2023/01/25 05:33:54;;;;;;;36.53;32.13;;;0.30;99.90;;;;;;6126565;23;20014;-82
2023/01/25 05:36:19;;;;;;;38.33;33.90;;;0.30;99.90;;;;;;6127622;23;20017;-82
2023/01/25 05:38:45;;;;;;;36.78;31.55;;;0.40;99.90;;;;;;6151213;23;20064;-83
2023/01/25 05:41:10;;;;;;;39.70;32.80;;;0.30;99.90;;;;;;6128326;23;20101;-80
2023/01/25 05:43:36;;;;;;;39.55;34.42;;;0.30;99.90;;;;;;6151494;23;20017;-79
2023/01/25 05:46:01;;;;;;;38.35;32.22;;;0.40;99.90;;;;;;6125370;23;20354;-81
2023/01/25 05:48:27;;;;;;;38.67;32.97;;;0.40;99.90;;;;;;6151525;23;20447;-79
2023/01/25 05:50:56;;;;;;;39.08;33.58;;;0.40;99.90;;;;;;6149903;23;20344;-83
2023/01/25 05:53:26;;;;;;;38.90;33.15;;;0.40;99.90;;;;;;6146049;23;20013;-82
2023/01/25 05:55:52;;;;;;;37.50;32.85;;;0.40;99.90;;;;;;6146701;23;20808;-83
2023/01/25 05:58:18;;;;;;;39.22;33.92;;;0.40;99.90;;;;;;6149602;23;20014;-81
2023/01/25 06:00:43;;;;;;;39.90;35.00;;;0.40;99.90;;;;;;6153721;23;20009;-85
2023/01/25 06:03:09;;;;;;;39.28;34.25;;;0.40;99.90;;;;;;6129406;23;20292;-87
2023/01/25 06:05:38;;;;;;;40.17;34.00;;;0.40;99.90;;;;;;6156116;23;20013;-81
2023/01/25 06:08:04;;;;;;;38.35;33.08;;;0.40;99.90;;;;;;6158062;23;20012;-81
2023/01/25 06:10:29;;;;;;;37.97;33.53;;;0.40;99.90;;;;;;6133457;23;20057;-81
2023/01/25 06:12:58;;;;;;;39.83;33.33;;;0.40;99.90;;;;;;6129409;23;20072;-85
2023/01/25 06:15:24;;;;;;;37.58;33.45;;;0.40;99.90;;;;;;6152763;23;20339;-82
2023/01/25 06:17:54;;;;;;;40.92;34.20;;;0.40;99.90;;;;;;6130303;23;20021;-83
2023/01/25 06:20:19;;;;;;;38.67;34.03;;;0.40;99.90;;;;;;6130300;23;20139;-83
2023/01/25 06:22:50;;;;;;;36.17;32.22;;;0.50;99.90;;;;;;6152871;23;20647;-80
2023/01/25 06:25:15;;;;;;;40.03;33.70;;;0.40;99.90;;;;;;6152200;23;20072;-80
2023/01/25 06:27:41;;;;;;;40.25;33.63;;;0.50;99.90;;;;;;6153537;23;20017;-80
2023/01/25 06:30:07;;;;;;;38.08;33.35;;;0.50;99.90;;;;;;6153606;23;20097;-81
2023/01/25 06:32:33;;;;;;;39.50;33.83;;;0.50;99.90;;;;;;6153857;23;20014;-84
2023/01/25 06:34:58;;;;;;;38.42;33.40;;;0.50;99.90;;;;;;6151967;23;20383;-81
2023/01/25 06:37:24;;;;;;;39.70;35.00;;;0.50;99.90;;;;;;6128460;23;20017;-81
2023/01/25 06:39:49;;;;;;;40.13;33.67;;;0.50;99.90;;;;;;6150633;23;20021;-81
2023/01/25 06:42:15;;;;;;;38.40;33.65;;;0.40;99.90;;;;;;6152716;23;20025;-78
2023/01/25 06:44:41;;;;;;;38.97;33.90;;;0.40;99.90;;;;;;6151751;23;20070;-81
2023/01/25 06:47:11;;;;;;;39.55;35.13;;;0.40;99.90;;;;;;6151393;23;20096;-78
2023/01/25 06:49:36;;;;;;;39.55;34.80;;;0.50;99.90;;;;;;6152256;23;20101;-78
2023/01/25 06:52:02;;;;;;;39.67;35.28;;;0.40;99.90;;;;;;6151293;23;20045;-79
2023/01/25 06:54:28;;;;;;;39.78;35.40;;;0.50;99.90;;;;;;6150768;23;20022;-83
2023/01/25 06:56:53;;;;;;;40.65;35.95;;;0.50;99.90;;;;;;6153402;23;20454;-80
2023/01/25 06:59:20;;;;;;;39.58;35.05;;;0.50;99.90;;;;;;6152183;23;20020;-82
2023/01/25 07:01:46;;;;;;;40.33;35.97;;;0.50;99.90;;;;;;6152944;23;20009;-80
2023/01/25 07:04:11;;;;;;;39.60;34.20;;;1.20;99.90;;;;;;6152581;23;20353;-85
2023/01/25 07:06:37;;;;;;;42.15;36.33;;;0.50;99.90;;;;;;6144619;23;20022;-80
2023/01/25 07:09:08;;;;;;;41.00;35.40;;;0.50;99.90;;;;;;6153119;23;20013;-80
2023/01/25 07:11:50;;;;;;;42.35;36.17;;;0.40;99.90;;;;;;6159445;23;20014;-78
2023/01/25 07:14:16;;;;;;;39.88;34.70;;;0.40;99.90;;;;;;6154527;23;20454;-86
2023/01/25 07:16:41;;;;;;;41.45;36.95;;;0.40;99.90;;;;;;6154484;23;20041;-79
2023/01/25 07:19:10;;;;;;;39.85;33.75;;;0.40;99.90;;;;;;6153407;23;20018;-79
2023/01/25 07:21:36;;;;;;;43.05;34.70;;;0.50;99.90;;;;;;6155027;23;20014;-82
2023/01/25 07:24:04;;;;;;;41.00;35.67;;;0.50;99.90;;;;;;6154556;23;20468;-79
2023/01/25 07:26:30;;;;;;;40.95;34.53;;;0.50;99.90;;;;;;6153416;23;20014;-80
2023/01/25 07:28:57;;;;;;;39.15;33.13;;;0.50;99.90;;;;;;6153147;23;20075;-79
2023/01/25 07:31:23;;;;;;;40.83;34.92;;;0.40;99.90;;;;;;6127862;23;20013;-79
2023/01/25 07:33:53;;;;;;;40.78;34.85;;;0.50;99.90;;;;;;6145951;23;20012;-80
2023/01/25 07:36:19;;;;;;;35.33;31.27;;;0.40;99.90;;;;;;6138039;23;20065;-80
2023/01/25 07:38:45;;;;;;;37.95;32.15;;;0.40;99.90;;;;;;6128689;23;20010;-79
2023/01/25 07:41:11;;;;;;;40.42;32.65;;;0.40;99.90;;;;;;6151662;23;20096;-80
2023/01/25 07:43:37;;;;;;;38.95;32.58;;;0.40;99.90;;;;;;6152867;23;20028;-82
2023/01/25 07:46:06;;;;;;;39.20;34.13;;;0.40;99.90;;;;;;6153710;23;20010;-80
2023/01/25 07:48:32;;;;;;;42.25;35.38;;;0.30;99.90;;;;;;6130159;23;20016;-80
2023/01/25 07:51:21;;;;;;;40.97;33.35;;;0.30;99.90;;;;;;6154326;23;20041;-80
2023/01/25 07:53:50;;;;;;;48.97;33.25;;;0.30;99.90;;;;;;6155149;23;20016;-83
2023/01/25 07:56:18;;;;;;;42.30;35.25;;;0.40;99.90;;;;;;6154769;23;20009;-79
2023/01/25 07:58:43;;;;;;;41.38;34.75;;;0.30;99.90;;;;;;6155331;23;20021;-80
2023/01/25 08:01:11;;;;;;;41.70;35.42;;;0.40;99.90;;;;;;6153165;23;20032;-85
2023/01/25 08:03:37;;;;;;;40.55;35.00;;;0.40;99.90;;;;;;6155340;23;20059;-80
2023/01/25 08:06:04;;;;;;;40.10;35.35;;;0.40;99.90;;;;;;6130644;23;20350;-83
2023/01/25 08:08:36;;;;;;;43.95;36.83;;;0.40;99.90;;;;;;6130835;23;20040;-80
2023/01/25 08:11:12;;;;;;;46.50;36.25;;;0.50;99.90;;;;;;6156470;23;20013;-84
2023/01/25 08:13:39;;;;;;;42.00;35.30;;;0.50;99.90;;;;;;6154949;23;20165;-80
2023/01/25 08:16:05;;;;;;;41.45;35.10;;;0.40;99.90;;;;;;6154903;23;20013;-80
2023/01/25 08:18:32;;;;;;;46.88;37.55;;;0.40;99.90;;;;;;6156267;23;20006;-82
2023/01/25 08:20:58;;;;;;;47.92;38.10;;;0.40;99.90;;;;;;6154578;23;20094;-83
2023/01/25 08:23:24;;;;;;;45.88;36.35;;;0.50;99.90;;;;;;6154295;23;20045;-83
2023/01/25 08:25:50;;;;;;;45.63;38.20;;;0.40;99.90;;;;;;6130573;23;20049;-83
2023/01/25 08:28:15;;;;;;;43.00;36.35;;;0.40;99.90;;;;;;6155955;23;20413;-80
2023/01/25 08:30:41;;;;;;;48.88;39.05;;;0.40;99.90;;;;;;6154534;23;20350;-80
2023/01/25 08:33:07;;;;;;;45.40;37.92;;;0.40;99.90;;;;;;6129580;23;20092;-82
2023/01/25 08:35:34;;;;;;;44.28;37.25;;;0.40;99.90;;;;;;6128531;23;20014;-85
2023/01/25 08:38:00;;;;;;;45.08;37.28;;;0.40;99.90;;;;;;6155647;23;20068;-80
2023/01/25 08:40:25;;;;;;;44.15;36.45;;;0.40;99.90;;;;;;6130792;23;20041;-80
2023/01/25 08:42:51;;;;;;;46.08;36.55;;;0.40;99.90;;;;;;6155646;23;20039;-81
2023/01/25 08:45:16;;;;;;;42.70;34.13;;;0.40;99.90;;;;;;6129836;23;20021;-80
2023/01/25 08:47:42;;;;;;;46.33;36.70;;;0.40;99.90;;;;;;6129503;23;20454;-80
2023/01/25 08:50:08;;;;;;;42.50;34.30;;;0.30;99.90;;;;;;6155788;23;20045;-82
2023/01/25 08:52:33;;;;;;;39.72;32.80;;;0.30;99.90;;;;;;6156451;23;20009;-83
2023/01/25 08:54:59;;;;;;;43.30;33.15;;;0.40;99.90;;;;;;6156116;23;20088;-83
2023/01/25 08:57:25;;;;;;;40.38;32.60;;;0.40;99.90;;;;;;6130993;23;20096;-79
2023/01/25 08:59:51;;;;;;;38.33;31.30;;;0.40;99.90;;;;;;6130345;23;20013;-80
2023/01/25 09:02:18;;;;;;;38.95;32.42;;;0.40;99.90;;;;;;6154090;23;20049;-79
2023/01/25 09:04:43;;;;;;;41.78;32.90;;;0.40;99.90;;;;;;6153943;23;20013;-79
2023/01/25 09:07:09;;;;;;;43.17;34.55;;;0.30;99.90;;;;;;6153493;23;20013;-81
2023/01/25 09:09:34;;;;;;;41.20;33.15;;;0.30;99.90;;;;;;6127241;23;20100;-79
2023/01/25 09:12:00;;;;;;;39.33;32.35;;;0.30;99.90;;;;;;6153990;23;20020;-82
2023/01/25 09:14:25;;;;;;;39.20;32.25;;;0.30;99.90;;;;;;6153002;23;20014;-80
2023/01/25 09:16:51;;;;;;;40.15;32.20;;;0.30;99.90;;;;;;6129008;23;20103;-79
2023/01/25 09:19:17;;;;;;;41.17;34.08;;;0.30;99.90;;;;;;6130500;23;20013;-81
2023/01/25 09:21:42;;;;;;;40.90;33.20;;;0.30;99.90;;;;;;6156546;23;20013;-83
2023/01/25 09:24:09;;;;;;;42.45;32.53;;;0.30;99.90;;;;;;6153956;23;20040;-84
2023/01/25 09:26:37;;;;;;;41.22;32.70;;;0.30;99.90;;;;;;6153900;23;20017;-82
2023/01/25 09:29:03;;;;;;;43.88;33.97;;;0.30;99.90;;;;;;6154784;23;20037;-85
2023/01/25 09:31:29;;;;;;;42.22;34.58;;;0.30;99.90;;;;;;6129804;23;20049;-80
2023/01/25 09:33:56;;;;;;;43.33;34.42;;;0.30;99.90;;;;;;6153466;23;20097;-80
2023/01/25 09:36:21;;;;;;;48.83;35.15;;;0.30;99.90;;;;;;6155618;23;20020;-81
2023/01/25 09:38:47;;;;;;;44.30;34.45;;;0.30;99.90;;;;;;6133006;23;20013;-83
2023/01/25 09:41:34;;;;;;;45.95;33.30;;;0.30;99.90;;;;;;6133225;23;20013;-79
2023/01/25 09:44:19;;;;;;;40.05;32.58;;;0.30;99.90;;;;;;6152057;23;20025;-81
2023/01/25 09:46:48;;;;;;;43.40;33.97;;;0.30;99.90;;;;;;6152877;23;20021;-80
2023/01/25 09:49:44;;;;;;;47.10;34.28;;;0.30;99.90;;;;;;6156501;23;20092;-81
2023/01/25 09:52:46;;;;;;;49.42;36.28;;;0.40;99.90;;;;;;6156913;23;20028;-83
2023/01/25 09:55:14;;;;;;;48.92;35.88;;;0.40;99.90;;;;;;6157405;23;20045;-80
2023/01/25 09:57:42;;;;;;;49.97;36.17;;;0.30;99.90;;;;;;6158008;23;20006;-79
2023/01/25 10:00:19;;;;;;;45.63;35.33;;;0.30;99.90;;;;;;6157203;23;20450;-86
2023/01/25 10:02:48;;;;;;;46.85;36.08;;;0.30;99.90;;;;;;6158438;23;20017;-80
2023/01/25 10:05:23;;;;;;;45.47;35.13;;;0.30;99.90;;;;;;6132116;23;20045;-84
2023/01/25 10:08:05;;;;;;;43.38;34.60;;;0.40;99.90;;;;;;6158045;23;20013;-79
2023/01/25 10:10:36;;;;;;;44.22;32.28;;;0.30;99.90;;;;;;6132604;23;20415;-81
2023/01/25 10:13:02;;;;;;;41.55;31.73;;;0.30;99.90;;;;;;6157228;23;20073;-84
2023/01/25 10:15:37;;;;;;;40.67;31.83;;;0.30;99.90;;;;;;6156823;23;20016;-80
2023/01/25 10:18:35;;;;;;;41.08;32.38;;;0.30;99.90;;;;;;6154279;23;20032;-85
2023/01/25 10:21:08;;;;;;;40.50;31.30;;;0.30;99.90;;;;;;6156442;23;20009;-82
2023/01/25 10:23:46;;;;;;;44.72;32.78;;;0.30;99.90;;;;;;6131906;23;20013;-85
2023/01/25 10:26:34;;;;;;;43.70;31.85;;;0.30;99.90;;;;;;6131685;23;20084;-79
2023/01/25 10:29:10;;;;;;;41.88;31.98;;;0.30;99.90;;;;;;6142197;23;20048;-80
2023/01/25 10:32:18;;;;;;;43.55;32.53;;;0.40;99.90;;;;;;6157161;23;20390;-80
2023/01/25 10:34:49;;;;;;;38.78;30.23;;;0.40;99.90;;;;;;6157178;23;20009;-81
2023/01/25 10:37:21;;;;;;;41.42;31.25;;;0.40;99.90;;;;;;6158058;23;20586;-80
2023/01/25 10:40:10;;;;;;;45.30;32.53;;;0.40;99.90;;;;;;6134145;23;20021;-80
2023/01/25 10:42:43;;;;;;;46.42;31.48;;;0.40;99.90;;;;;;6134278;23;20014;-79
2023/01/25 10:45:16;;;;;;;43.83;30.67;;;0.30;99.90;;;;;;6157806;23;20009;-83
2023/01/25 10:47:53;;;;;;;39.00;28.67;;;0.30;99.90;;;;;;6155099;23;20075;-81
2023/01/25 10:50:47;;;;;;;43.42;30.75;;;0.40;99.90;;;;;;6156735;23;20438;-80
2023/01/25 10:53:29;;;;;;;45.08;31.70;;;0.40;99.90;;;;;;6150212;23;20013;-80
2023/01/25 10:56:10;;;;;;;46.90;30.73;;;0.40;99.90;;;;;;6156770;23;20056;-80
2023/01/25 10:58:42;;;;;;;44.22;31.42;;;0.40;99.90;;;;;;6157438;23;20014;-80
2023/01/25 11:01:11;;;;;;;44.53;30.60;;;0.40;99.90;;;;;;6132047;23;20465;-80
2023/01/25 11:03:43;;;;;;;46.60;30.80;;;0.40;99.90;;;;;;6157053;23;20006;-80
2023/01/25 11:06:09;;;;;;;45.97;31.77;;;0.40;99.90;;;;;;6133995;23;20020;-82
2023/01/25 11:08:40;;;;;;;47.25;32.25;;;0.30;99.90;;;;;;6136028;23;20069;-84
2023/01/25 11:11:30;;;;;;;47.22;31.77;;;0.30;99.90;;;;;;6160204;23;20020;-82
2023/01/25 11:13:56;;;;;;;48.75;32.15;;;0.30;99.90;;;;;;6134019;23;20088;-80
2023/01/25 11:16:32;;;;;;;48.92;32.50;;;0.30;99.90;;;;;;6158324;23;20675;-81
2023/01/25 11:19:00;;;;;;;52.53;33.00;;;0.30;99.90;;;;;;6156735;23;20522;-83
2023/01/25 11:21:33;;;;;;;49.75;33.85;;;0.40;99.90;;;;;;6158201;23;20028;-82
2023/01/25 11:24:17;;;;;;;51.47;33.53;;;0.30;99.90;;;;;;6132323;23;20014;-80
2023/01/25 11:26:43;;;;;;;49.80;31.83;;;0.40;99.90;;;;;;6129378;23;20049;-80
2023/01/25 11:30:00;;;;;;;51.63;33.17;;;0.30;99.90;;;;;;6156384;23;20100;-82
2023/01/25 11:32:27;;;;;;;47.88;30.98;;;0.40;99.90;;;;;;6082483;23;20475;-81
2023/01/25 11:34:53;;;;;;;48.97;32.33;;;0.40;99.90;;;;;;6156668;23;20025;-83
2023/01/25 11:37:25;;;;;;;48.28;31.88;;;0.40;99.90;;;;;;6157284;23;20044;-80
2023/01/25 11:40:22;;;;;;;50.75;31.95;;;0.30;99.90;;;;;;6131896;23;20021;-80
2023/01/25 11:43:09;;;;;;;56.33;33.92;;;0.40;99.90;;;;;;6157029;23;20531;-80
2023/01/25 11:46:00;;;;;;;51.45;32.97;;;0.40;99.90;;;;;;6156116;23;20010;-82
2023/01/25 11:48:50;;;;;;;54.10;33.42;;;0.40;99.90;;;;;;6157161;23;20017;-79
2023/01/25 11:51:32;;;;;;;56.88;33.38;;;0.50;99.90;;;;;;6155655;23;20355;-83
2023/01/25 11:54:18;;;;;;;52.67;31.98;;;0.50;99.90;;;;;;6156343;23;20013;-82
2023/01/25 11:56:58;;;;;;;54.00;33.28;;;0.40;99.90;;;;;;6152607;23;20466;-83
2023/01/25 11:59:41;;;;;;;56.97;35.00;;;0.70;99.90;;;;;;6154657;23;20018;-80
2023/01/25 12:02:38;;;;;;;53.50;34.15;;;0.50;99.90;;;;;;6153490;23;20013;-81
2023/01/25 12:05:38;;;;;;;56.17;34.03;;;0.50;99.90;;;;;;6155104;23;20022;-81
2023/01/25 12:08:16;;;;;;;56.67;33.55;;;0.50;99.90;;;;;;6156852;23;20087;-83
2023/01/25 12:11:16;;;;;;;51.05;32.58;;;0.50;99.90;;;;;;6132763;23;20017;-82
2023/01/25 12:14:09;;;;;;;54.00;31.80;;;0.50;99.90;;;;;;6158997;23;20417;-81
2023/01/25 12:17:00;;;;;;;46.30;31.90;;;0.50;99.90;;;;;;6133285;23;20017;-87
2023/01/25 12:20:08;;;;;;;52.53;32.80;;;0.50;99.90;;;;;;6156514;23;20021;-83
2023/01/25 12:22:48;;;;;;;52.05;32.38;;;0.50;99.90;;;;;;6132169;23;20014;-83
2023/01/25 12:25:37;;;;;;;48.60;31.70;;;0.50;99.90;;;;;;6157468;23;20426;-82
2023/01/25 12:28:13;;;;;;;58.55;34.33;;;0.50;99.90;;;;;;6132482;23;20005;-87
2023/01/25 12:30:39;;;;;;;;;;;0.50;99.90;;;;;;6133421;23;20048;-83
2023/01/25 12:33:13;;;;;;;56.23;34.20;;;0.50;99.90;;;;;;6157742;23;19916;-80
2023/01/25 12:35:53;;;;;;;49.90;32.28;;;0.50;99.90;;;;;;6152804;23;20020;-80
2023/01/25 12:38:27;;;;;;;53.13;33.28;;;0.50;99.90;;;;;;6154858;23;20009;-79
2023/01/25 12:40:58;;;;;;;53.17;34.15;;;0.50;99.90;;;;;;6131648;23;20009;-82
2023/01/25 12:43:47;;;;;;;56.75;33.78;;;0.50;99.90;;;;;;6131736;23;20024;-85
2023/01/25 12:46:29;;;;;;;54.05;32.65;;;0.50;99.90;;;;;;6129695;23;20435;-81
2023/01/25 12:49:03;;;;;;;51.75;30.88;;;0.50;99.90;;;;;;6130551;23;20021;-80
2023/01/25 12:51:36;;;;;;;53.88;32.13;;;0.50;99.90;;;;;;6154958;23;20335;-83
2023/01/25 12:54:10;;;;;;;59.50;34.25;;;0.50;99.90;;;;;;6147639;23;20132;-83
2023/01/25 12:57:01;;;;;;;65.13;35.97;;;0.50;99.90;;;;;;6153440;23;20649;-79